In Rescue
 
Open Full Screen Window  High Contrast Mode
Wind Gusting 00 knots
08
July 13, 2020 11:17 PM CDT
Weather Information
Wind Direction
  180 °
Wind Speed
  08 kt (9 mph)
Wind Gust
  00 kt (0 mph)
Altimeter
29.76 in
Visibility
10 SM
Temperature
24° C
75° F
Dewpoint
17° C
63° F
Humidity
65%
1hr Rain Fall
00.00 in.
24hr Rain Fall
00.00 in.
Sky Condition
Broken @ 7,000 ft
Broken @ 6,000 ft
Broken @ 5,000 ft
VFR

METAR KJMR 140417Z AUTO 18008KT 10SM BKN050 BKN060 BKN070 24/17 A2976 RMK AO2

FAA Disclaimer: The data displayed is for advisory purposes only and is not to be used for flight planning or operations.